sensor_id;sensor_type;location;lat;lon;timestamp;pressure;altitude;pressure_sealevel;temperature;humidity
62725;BME280;49026;52.600;4.694;2023-02-28T00:01:22;103292.88;;;2.41;70.92
62725;BME280;49026;52.600;4.694;2023-02-28T00:03:47;103299.88;;;2.44;71.02
62725;BME280;49026;52.600;4.694;2023-02-28T00:06:13;103299.22;;;2.49;70.78
62725;BME280;49026;52.600;4.694;2023-02-28T00:08:39;103301.91;;;2.52;70.75
62725;BME280;49026;52.600;4.694;2023-02-28T00:11:09;103294.19;;;2.55;71.08
62725;BME280;49026;52.600;4.694;2023-02-28T00:13:37;103293.44;;;2.58;70.74
62725;BME280;49026;52.600;4.694;2023-02-28T00:16:10;103288.28;;;2.59;70.76
62725;BME280;49026;52.600;4.694;2023-02-28T00:18:36;103289.28;;;2.63;71.12
62725;BME280;49026;52.600;4.694;2023-02-28T00:21:01;103288.44;;;2.64;70.91
62725;BME280;49026;52.600;4.694;2023-02-28T00:23:27;103281.53;;;2.65;70.28
62725;BME280;49026;52.600;4.694;2023-02-28T00:25:53;103289.31;;;2.65;70.84
62725;BME280;49026;52.600;4.694;2023-02-28T00:28:19;103283.34;;;2.67;71.45
62725;BME280;49026;52.600;4.694;2023-02-28T00:30:47;103286.94;;;2.71;70.58
62725;BME280;49026;52.600;4.694;2023-02-28T00:33:14;103281.81;;;2.74;71.41
62725;BME280;49026;52.600;4.694;2023-02-28T00:35:40;103276.72;;;2.77;70.69
62725;BME280;49026;52.600;4.694;2023-02-28T00:38:05;103275.03;;;2.77;71.06
62725;BME280;49026;52.600;4.694;2023-02-28T00:40:31;103289.81;;;2.80;70.94
62725;BME280;49026;52.600;4.694;2023-02-28T00:42:56;103279.47;;;2.82;70.99
62725;BME280;49026;52.600;4.694;2023-02-28T00:45:22;103276.09;;;2.84;71.21
62725;BME280;49026;52.600;4.694;2023-02-28T00:47:49;103289.16;;;2.87;71.16
62725;BME280;49026;52.600;4.694;2023-02-28T00:50:19;103279.72;;;2.89;70.99
62725;BME280;49026;52.600;4.694;2023-02-28T00:52:47;103285.00;;;2.92;70.85
62725;BME280;49026;52.600;4.694;2023-02-28T00:55:12;103277.22;;;2.92;71.48
62725;BME280;49026;52.600;4.694;2023-02-28T00:57:40;103284.16;;;2.93;70.97
62725;BME280;49026;52.600;4.694;2023-02-28T01:00:06;103285.03;;;2.94;71.50
62725;BME280;49026;52.600;4.694;2023-02-28T01:02:35;103280.78;;;2.96;71.07
62725;BME280;49026;52.600;4.694;2023-02-28T01:05:03;103276.47;;;2.96;71.44
62725;BME280;49026;52.600;4.694;2023-02-28T01:07:40;103271.31;;;2.98;70.77
62725;BME280;49026;52.600;4.694;2023-02-28T01:10:18;103280.91;;;3.01;71.08
62725;BME280;49026;52.600;4.694;2023-02-28T01:12:55;103280.09;;;3.02;71.57
62725;BME280;49026;52.600;4.694;2023-02-28T01:15:20;103287.16;;;3.06;71.13
62725;BME280;49026;52.600;4.694;2023-02-28T01:17:48;103286.28;;;3.07;71.17
62725;BME280;49026;52.600;4.694;2023-02-28T01:20:20;103286.34;;;3.08;71.08
62725;BME280;49026;52.600;4.694;2023-02-28T01:25:13;103267.34;;;3.09;71.17
62725;BME280;49026;52.600;4.694;2023-02-28T01:27:39;103270.72;;;3.07;71.50
62725;BME280;49026;52.600;4.694;2023-02-28T01:30:06;103266.28;;;3.03;71.45
62725;BME280;49026;52.600;4.694;2023-02-28T01:32:31;103265.31;;;3.01;71.42
62725;BME280;49026;52.600;4.694;2023-02-28T01:34:57;103263.53;;;2.98;72.04
62725;BME280;49026;52.600;4.694;2023-02-28T01:37:22;103265.41;;;3.04;72.02
62725;BME280;49026;52.600;4.694;2023-02-28T01:39:50;103276.75;;;3.06;71.45
62725;BME280;49026;52.600;4.694;2023-02-28T01:42:15;103275.06;;;3.08;71.59
62725;BME280;49026;52.600;4.694;2023-02-28T01:44:59;103259.50;;;3.08;71.88
62725;BME280;49026;52.600;4.694;2023-02-28T01:47:34;103257.81;;;3.10;71.46
62725;BME280;49026;52.600;4.694;2023-02-28T01:50:02;103250.13;;;3.13;71.30
62725;BME280;49026;52.600;4.694;2023-02-28T01:52:30;103252.81;;;3.16;71.55
62725;BME280;49026;52.600;4.694;2023-02-28T01:54:58;103250.16;;;3.14;71.81
62725;BME280;49026;52.600;4.694;2023-02-28T01:57:32;103247.41;;;3.10;71.72
62725;BME280;49026;52.600;4.694;2023-02-28T02:00:06;103248.13;;;3.04;71.82
62725;BME280;49026;52.600;4.694;2023-02-28T02:02:33;103247.13;;;3.01;71.77
62725;BME280;49026;52.600;4.694;2023-02-28T02:05:12;103252.31;;;2.99;72.28
62725;BME280;49026;52.600;4.694;2023-02-28T02:07:41;103246.25;;;3.00;72.17
62725;BME280;49026;52.600;4.694;2023-02-28T02:15:34;103238.41;;;2.99;72.24
62725;BME280;49026;52.600;4.694;2023-02-28T02:18:14;103235.00;;;3.00;71.87
62725;BME280;49026;52.600;4.694;2023-02-28T02:21:14;103234.16;;;3.01;71.99
62725;BME280;49026;52.600;4.694;2023-02-28T02:29:59;103215.13;;;3.02;71.40
62725;BME280;49026;52.600;4.694;2023-02-28T02:35:19;103209.03;;;3.00;71.45
62725;BME280;49026;52.600;4.694;2023-02-28T02:38:13;103207.16;;;2.95;71.25
62725;BME280;49026;52.600;4.694;2023-02-28T02:43:29;103211.22;;;2.86;71.86
62725;BME280;49026;52.600;4.694;2023-02-28T02:46:28;103199.94;;;2.85;71.82
62725;BME280;49026;52.600;4.694;2023-02-28T02:48:57;103198.25;;;2.86;71.77
62725;BME280;49026;52.600;4.694;2023-02-28T02:51:25;103202.53;;;2.85;71.25
62725;BME280;49026;52.600;4.694;2023-02-28T02:53:55;103200.84;;;2.87;71.60
62725;BME280;49026;52.600;4.694;2023-02-28T02:56:27;103206.03;;;2.87;71.65
62725;BME280;49026;52.600;4.694;2023-02-28T02:58:57;103207.00;;;2.89;71.89
62725;BME280;49026;52.600;4.694;2023-02-28T03:01:28;103207.09;;;2.92;72.01
62725;BME280;49026;52.600;4.694;2023-02-28T03:03:58;103211.53;;;2.96;71.61
62725;BME280;49026;52.600;4.694;2023-02-28T03:06:25;103212.53;;;3.02;72.15
62725;BME280;49026;52.600;4.694;2023-02-28T03:08:55;103206.63;;;3.07;72.23
62725;BME280;49026;52.600;4.694;2023-02-28T03:11:20;103214.56;;;3.12;72.22
62725;BME280;49026;52.600;4.694;2023-02-28T03:13:51;103216.34;;;3.13;72.38
62725;BME280;49026;52.600;4.694;2023-02-28T03:21:37;103211.91;;;3.10;72.70
62725;BME280;49026;52.600;4.694;2023-02-28T03:24:11;103216.25;;;3.10;72.36
62725;BME280;49026;52.600;4.694;2023-02-28T03:26:45;103212.81;;;3.11;72.30
62725;BME280;49026;52.600;4.694;2023-02-28T03:29:21;103211.16;;;3.13;72.35
62725;BME280;49026;52.600;4.694;2023-02-28T03:31:54;103206.78;;;3.12;72.29
62725;BME280;49026;52.600;4.694;2023-02-28T03:34:27;103220.63;;;3.11;72.76
62725;BME280;49026;52.600;4.694;2023-02-28T03:36:59;103221.44;;;3.10;72.48
62725;BME280;49026;52.600;4.694;2023-02-28T03:39:34;103216.34;;;3.13;72.98
62725;BME280;49026;52.600;4.694;2023-02-28T03:42:09;103213.84;;;3.16;72.91
62725;BME280;49026;52.600;4.694;2023-02-28T03:44:41;103217.34;;;3.18;73.11
62725;BME280;49026;52.600;4.694;2023-02-28T03:47:13;103213.06;;;3.20;72.50
62725;BME280;49026;52.600;4.694;2023-02-28T03:49:45;103215.72;;;3.22;73.12
62725;BME280;49026;52.600;4.694;2023-02-28T03:52:12;103208.78;;;3.22;73.15
62725;BME280;49026;52.600;4.694;2023-02-28T03:54:45;103218.44;;;3.26;73.16
62725;BME280;49026;52.600;4.694;2023-02-28T04:00:12;103213.44;;;3.32;72.97
62725;BME280;49026;52.600;4.694;2023-02-28T04:02:39;103208.25;;;3.34;72.78
62725;BME280;49026;52.600;4.694;2023-02-28T04:05:08;103203.09;;;3.36;72.70
62725;BME280;49026;52.600;4.694;2023-02-28T04:07:34;103210.03;;;3.35;72.85
62725;BME280;49026;52.600;4.694;2023-02-28T04:09:59;103201.34;;;3.34;73.38
62725;BME280;49026;52.600;4.694;2023-02-28T04:12:27;103205.66;;;3.32;72.78
62725;BME280;49026;52.600;4.694;2023-02-28T04:14:53;103203.81;;;3.30;72.90
62725;BME280;49026;52.600;4.694;2023-02-28T04:17:21;103201.19;;;3.28;72.84
62725;BME280;49026;52.600;4.694;2023-02-28T04:19:48;103198.53;;;3.27;73.51
62725;BME280;49026;52.600;4.694;2023-02-28T04:22:14;103201.19;;;3.28;72.85
62725;BME280;49026;52.600;4.694;2023-02-28T04:24:42;103200.41;;;3.31;72.62
62725;BME280;49026;52.600;4.694;2023-02-28T04:27:08;103206.56;;;3.34;73.13
62725;BME280;49026;52.600;4.694;2023-02-28T04:29:34;103202.31;;;3.38;72.97
62725;BME280;49026;52.600;4.694;2023-02-28T04:32:00;103204.09;;;3.39;73.30
62725;BME280;49026;52.600;4.694;2023-02-28T04:34:27;103202.38;;;3.40;73.26
62725;BME280;49026;52.600;4.694;2023-02-28T04:36:54;103205.00;;;3.41;73.24
62725;BME280;49026;52.600;4.694;2023-02-28T04:39:23;103201.50;;;3.41;73.10
62725;BME280;49026;52.600;4.694;2023-02-28T04:41:49;103207.59;;;3.41;73.75
62725;BME280;49026;52.600;4.694;2023-02-28T04:44:15;103196.28;;;3.39;73.54
62725;BME280;49026;52.600;4.694;2023-02-28T04:46:41;103199.72;;;3.38;73.55
62725;BME280;49026;52.600;4.694;2023-02-28T04:49:08;103199.75;;;3.40;74.54
62725;BME280;49026;52.600;4.694;2023-02-28T04:51:35;103191.09;;;3.41;73.85
62725;BME280;49026;52.600;4.694;2023-02-28T04:54:00;103205.84;;;3.40;73.80
62725;BME280;49026;52.600;4.694;2023-02-28T04:56:28;103202.31;;;3.38;74.31
62725;BME280;49026;52.600;4.694;2023-02-28T04:58:53;103197.06;;;3.37;74.31
62725;BME280;49026;52.600;4.694;2023-02-28T05:01:29;103199.69;;;3.37;74.48
62725;BME280;49026;52.600;4.694;2023-02-28T05:03:56;103201.34;;;3.34;74.74
62725;BME280;49026;52.600;4.694;2023-02-28T05:06:25;103190.91;;;3.33;74.86
62725;BME280;49026;52.600;4.694;2023-02-28T05:08:52;103209.19;;;3.36;74.97
62725;BME280;49026;52.600;4.694;2023-02-28T05:11:20;103207.53;;;3.38;74.58
62725;BME280;49026;52.600;4.694;2023-02-28T05:13:46;103203.22;;;3.40;75.01
62725;BME280;49026;52.600;4.694;2023-02-28T05:16:12;103198.13;;;3.43;74.97
62725;BME280;49026;52.600;4.694;2023-02-28T05:18:38;103193.72;;;3.41;75.08
62725;BME280;49026;52.600;4.694;2023-02-28T05:21:04;103191.09;;;3.41;75.58
62725;BME280;49026;52.600;4.694;2023-02-28T05:23:31;103188.50;;;3.41;75.71
62725;BME280;49026;52.600;4.694;2023-02-28T05:25:59;103188.50;;;3.39;75.38
62725;BME280;49026;52.600;4.694;2023-02-28T05:28:25;103184.16;;;3.40;75.64
62725;BME280;49026;52.600;4.694;2023-02-28T05:30:50;103186.81;;;3.41;75.50
62725;BME280;49026;52.600;4.694;2023-02-28T05:33:15;103186.00;;;3.44;75.50
62725;BME280;49026;52.600;4.694;2023-02-28T05:35:41;103186.09;;;3.47;75.53
62725;BME280;49026;52.600;4.694;2023-02-28T05:38:10;103193.94;;;3.48;75.88
62725;BME280;49026;52.600;4.694;2023-02-28T05:40:38;103196.56;;;3.50;76.16
62725;BME280;49026;52.600;4.694;2023-02-28T05:43:04;103194.88;;;3.52;76.03
62725;BME280;49026;52.600;4.694;2023-02-28T05:45:29;103198.38;;;3.52;76.65
62725;BME280;49026;52.600;4.694;2023-02-28T05:48:02;103199.34;;;3.56;76.23
62725;BME280;49026;52.600;4.694;2023-02-28T05:50:29;103195.06;;;3.58;76.28
62725;BME280;49026;52.600;4.694;2023-02-28T05:52:54;103184.75;;;3.61;76.45
62725;BME280;49026;52.600;4.694;2023-02-28T05:55:22;103196.03;;;3.62;75.98
62725;BME280;49026;52.600;4.694;2023-02-28T05:57:50;103192.59;;;3.63;76.25
62725;BME280;49026;52.600;4.694;2023-02-28T06:00:16;103191.66;;;3.61;76.43
62725;BME280;49026;52.600;4.694;2023-02-28T06:02:42;103189.03;;;3.61;76.68
62725;BME280;49026;52.600;4.694;2023-02-28T06:05:13;103186.41;;;3.58;75.99
62725;BME280;49026;52.600;4.694;2023-02-28T06:07:42;103194.19;;;3.58;76.42
62725;BME280;49026;52.600;4.694;2023-02-28T06:10:12;103189.03;;;3.61;76.37
62725;BME280;49026;52.600;4.694;2023-02-28T06:12:37;103191.72;;;3.64;76.65
62725;BME280;49026;52.600;4.694;2023-02-28T06:15:03;103187.44;;;3.64;76.43
62725;BME280;49026;52.600;4.694;2023-02-28T06:17:29;103190.06;;;3.66;76.91
62725;BME280;49026;52.600;4.694;2023-02-28T06:19:54;103196.19;;;3.68;76.75
62725;BME280;49026;52.600;4.694;2023-02-28T06:22:19;103187.53;;;3.69;76.46
62725;BME280;49026;52.600;4.694;2023-02-28T06:24:44;103198.00;;;3.72;76.54
62725;BME280;49026;52.600;4.694;2023-02-28T06:27:10;103194.59;;;3.73;76.83
62725;BME280;49026;52.600;4.694;2023-02-28T06:29:38;103193.78;;;3.76;76.74
62725;BME280;49026;52.600;4.694;2023-02-28T06:32:11;103199.00;;;3.77;76.73
62725;BME280;49026;52.600;4.694;2023-02-28T06:34:38;103192.16;;;3.79;77.02
62725;BME280;49026;52.600;4.694;2023-02-28T06:37:03;103190.50;;;3.83;76.78
62725;BME280;49026;52.600;4.694;2023-02-28T06:39:31;103193.09;;;3.83;77.01
62725;BME280;49026;52.600;4.694;2023-02-28T06:41:59;103201.00;;;3.86;77.29
62725;BME280;49026;52.600;4.694;2023-02-28T06:44:24;103196.66;;;3.86;77.01
62725;BME280;49026;52.600;4.694;2023-02-28T06:46:52;103193.19;;;3.87;77.62
62725;BME280;49026;52.600;4.694;2023-02-28T06:49:19;103205.25;;;3.84;77.66
62725;BME280;49026;52.600;4.694;2023-02-28T06:51:45;103199.91;;;3.78;78.69
62725;BME280;49026;52.600;4.694;2023-02-28T06:54:10;103198.09;;;3.75;78.68
62725;BME280;49026;52.600;4.694;2023-02-28T06:56:36;103196.16;;;3.66;78.91
62725;BME280;49026;52.600;4.694;2023-02-28T06:59:02;103195.84;;;3.56;80.39
62725;BME280;49026;52.600;4.694;2023-02-28T07:01:28;103193.06;;;3.48;79.35
62725;BME280;49026;52.600;4.694;2023-02-28T07:03:54;103201.50;;;3.41;80.32
62725;BME280;49026;52.600;4.694;2023-02-28T07:06:21;103205.66;;;3.34;80.56
62725;BME280;49026;52.600;4.694;2023-02-28T07:08:48;103206.31;;;3.27;80.14
62725;BME280;49026;52.600;4.694;2023-02-28T07:11:16;103206.16;;;3.21;82.02
62725;BME280;49026;52.600;4.694;2023-02-28T07:13:41;103208.50;;;3.11;83.38
62725;BME280;49026;52.600;4.694;2023-02-28T07:16:11;103210.88;;;3.04;83.29
62725;BME280;49026;52.600;4.694;2023-02-28T07:18:37;103206.47;;;3.01;81.94
62725;BME280;49026;52.600;4.694;2023-02-28T07:21:10;103217.53;;;2.95;82.17
62725;BME280;49026;52.600;4.694;2023-02-28T07:23:36;103217.38;;;2.89;84.00
62725;BME280;49026;52.600;4.694;2023-02-28T07:26:04;103221.56;;;2.84;84.34
62725;BME280;49026;52.600;4.694;2023-02-28T07:28:29;103218.88;;;2.81;84.91
62725;BME280;49026;52.600;4.694;2023-02-28T07:30:55;103229.22;;;2.80;84.94
62725;BME280;49026;52.600;4.694;2023-02-28T07:33:20;103228.34;;;2.79;84.43
62725;BME280;49026;52.600;4.694;2023-02-28T07:35:45;103232.69;;;2.80;84.45
62725;BME280;49026;52.600;4.694;2023-02-28T07:38:10;103222.28;;;2.80;85.87
62725;BME280;49026;52.600;4.694;2023-02-28T07:40:37;103223.09;;;2.77;86.14
62725;BME280;49026;52.600;4.694;2023-02-28T07:43:06;103226.56;;;2.78;87.52
62725;BME280;49026;52.600;4.694;2023-02-28T07:45:32;103229.06;;;2.75;86.35
62725;BME280;49026;52.600;4.694;2023-02-28T07:48:06;103232.47;;;2.74;87.31
62725;BME280;49026;52.600;4.694;2023-02-28T07:50:42;103230.53;;;2.67;90.36
62725;BME280;49026;52.600;4.694;2023-02-28T07:53:08;103228.69;;;2.63;91.19
62725;BME280;49026;52.600;4.694;2023-02-28T07:55:33;103239.03;;;2.61;92.36
62725;BME280;49026;52.600;4.694;2023-02-28T07:58:01;103228.50;;;2.56;91.46
62725;BME280;49026;52.600;4.694;2023-02-28T08:00:26;103238.88;;;2.56;92.60
62725;BME280;49026;52.600;4.694;2023-02-28T08:02:51;103238.66;;;2.50;93.42
62725;BME280;49026;52.600;4.694;2023-02-28T08:05:17;103239.25;;;2.41;93.46
62725;BME280;49026;52.600;4.694;2023-02-28T08:07:44;103243.31;;;2.33;93.45
62725;BME280;49026;52.600;4.694;2023-02-28T08:10:10;103249.97;;;2.25;93.75
62725;BME280;49026;52.600;4.694;2023-02-28T08:12:35;103246.13;;;2.14;94.70
62725;BME280;49026;52.600;4.694;2023-02-28T08:15:03;103247.75;;;2.10;93.86
62725;BME280;49026;52.600;4.694;2023-02-28T08:17:31;103251.19;;;2.09;94.91
62725;BME280;49026;52.600;4.694;2023-02-28T08:19:56;103252.81;;;2.07;94.29
62725;BME280;49026;52.600;4.694;2023-02-28T08:22:21;103254.50;;;2.05;93.88
62725;BME280;49026;52.600;4.694;2023-02-28T08:24:47;103259.69;;;2.05;94.32
62725;BME280;49026;52.600;4.694;2023-02-28T08:27:12;103262.31;;;2.07;95.44
62725;BME280;49026;52.600;4.694;2023-02-28T08:29:38;103264.22;;;2.11;95.46
62725;BME280;49026;52.600;4.694;2023-02-28T08:32:05;103253.91;;;2.14;94.80
62725;BME280;49026;52.600;4.694;2023-02-28T08:34:30;103259.78;;;2.08;94.54
62725;BME280;49026;52.600;4.694;2023-02-28T08:36:56;103260.47;;;2.02;94.55
62725;BME280;49026;52.600;4.694;2023-02-28T08:39:21;103268.09;;;1.98;94.21
62725;BME280;49026;52.600;4.694;2023-02-28T08:41:46;103272.47;;;1.99;93.40
62725;BME280;49026;52.600;4.694;2023-02-28T08:44:12;103273.16;;;1.95;93.63
62725;BME280;49026;52.600;4.694;2023-02-28T08:46:40;103275.44;;;1.85;92.56
62725;BME280;49026;52.600;4.694;2023-02-28T08:49:12;103272.63;;;1.79;92.77
62725;BME280;49026;52.600;4.694;2023-02-28T08:51:38;103274.34;;;1.79;92.06
62725;BME280;49026;52.600;4.694;2023-02-28T08:54:04;103272.53;;;1.76;91.31
62725;BME280;49026;52.600;4.694;2023-02-28T08:56:29;103273.19;;;1.71;91.25
62725;BME280;49026;52.600;4.694;2023-02-28T08:58:59;103272.84;;;1.61;92.05
62725;BME280;49026;52.600;4.694;2023-02-28T09:01:26;103274.50;;;1.59;93.08
62725;BME280;49026;52.600;4.694;2023-02-28T09:03:55;103282.41;;;1.62;93.08
62725;BME280;49026;52.600;4.694;2023-02-28T09:06:23;103288.41;;;1.61;94.14
62725;BME280;49026;52.600;4.694;2023-02-28T09:08:49;103276.19;;;1.57;94.74
62725;BME280;49026;52.600;4.694;2023-02-28T09:11:15;103283.00;;;1.55;93.84
62725;BME280;49026;52.600;4.694;2023-02-28T09:13:41;103292.59;;;1.58;94.16
62725;BME280;49026;52.600;4.694;2023-02-28T09:16:09;103292.59;;;1.58;94.86
62725;BME280;49026;52.600;4.694;2023-02-28T09:18:36;103289.19;;;1.59;94.33
62725;BME280;49026;52.600;4.694;2023-02-28T09:21:06;103284.00;;;1.59;94.66
62725;BME280;49026;52.600;4.694;2023-02-28T09:23:31;103294.47;;;1.62;94.99
62725;BME280;49026;52.600;4.694;2023-02-28T09:25:59;103298.06;;;1.65;95.31
62725;BME280;49026;52.600;4.694;2023-02-28T09:28:24;103293.66;;;1.63;94.57
62725;BME280;49026;52.600;4.694;2023-02-28T09:30:52;103298.88;;;1.64;95.33
62725;BME280;49026;52.600;4.694;2023-02-28T09:33:21;103298.00;;;1.64;96.07
62725;BME280;49026;52.600;4.694;2023-02-28T09:35:50;103302.25;;;1.62;95.29
62725;BME280;49026;52.600;4.694;2023-02-28T09:38:16;103306.66;;;1.64;95.29
62725;BME280;49026;52.600;4.694;2023-02-28T09:40:54;103292.09;;;1.68;95.23
62725;BME280;49026;52.600;4.694;2023-02-28T09:43:23;103294.81;;;1.71;95.13
62725;BME280;49026;52.600;4.694;2023-02-28T09:46:05;103298.69;;;1.82;94.89
62725;BME280;49026;52.600;4.694;2023-02-28T09:48:39;103292.06;;;1.91;95.18
62725;BME280;49026;52.600;4.694;2023-02-28T09:51:23;103302.09;;;2.07;95.60
62725;BME280;49026;52.600;4.694;2023-02-28T09:53:53;103301.69;;;2.20;95.49
62725;BME280;49026;52.600;4.694;2023-02-28T09:56:21;103295.97;;;2.29;94.81
62725;BME280;49026;52.600;4.694;2023-02-28T09:58:59;103296.88;;;2.31;95.38
62725;BME280;49026;52.600;4.694;2023-02-28T10:06:49;103296.09;;;2.59;95.81
62725;BME280;49026;52.600;4.694;2023-02-28T10:09:23;103302.50;;;2.71;95.80
62725;BME280;49026;52.600;4.694;2023-02-28T10:11:52;103298.44;;;2.79;94.79
62725;BME280;49026;52.600;4.694;2023-02-28T10:14:20;103297.91;;;2.89;95.22
62725;BME280;49026;52.600;4.694;2023-02-28T10:16:53;103309.31;;;2.94;94.23
62725;BME280;49026;52.600;4.694;2023-02-28T10:22:50;103304.88;;;2.92;93.42
62725;BME280;49026;52.600;4.694;2023-02-28T10:25:22;103296.63;;;3.05;92.70
62725;BME280;49026;52.600;4.694;2023-02-28T10:27:49;103301.31;;;3.17;92.19
62725;BME280;49026;52.600;4.694;2023-02-28T10:30:18;103299.00;;;3.26;91.62
62725;BME280;49026;52.600;4.694;2023-02-28T10:32:49;103297.53;;;3.34;91.16
62725;BME280;49026;52.600;4.694;2023-02-28T10:37:51;103312.25;;;3.64;88.87
62725;BME280;49026;52.600;4.694;2023-02-28T10:43:11;103310.25;;;3.86;88.30
62725;BME280;49026;52.600;4.694;2023-02-28T10:46:15;103302.06;;;4.05;89.60
62725;BME280;49026;52.600;4.694;2023-02-28T10:48:57;103299.59;;;4.10;89.05
62725;BME280;49026;52.600;4.694;2023-02-28T10:51:24;103286.16;;;4.26;88.90
62725;BME280;49026;52.600;4.694;2023-02-28T10:53:51;103278.75;;;4.43;87.31
62725;BME280;49026;52.600;4.694;2023-02-28T10:56:21;103284.41;;;4.62;86.64
62725;BME280;49026;52.600;4.694;2023-02-28T11:03:55;103290.91;;;4.79;85.17
62725;BME280;49026;52.600;4.694;2023-02-28T11:06:26;103289.34;;;4.89;85.15
62725;BME280;49026;52.600;4.694;2023-02-28T11:08:59;103286.84;;;4.92;83.07
62725;BME280;49026;52.600;4.694;2023-02-28T11:11:27;103288.38;;;4.84;82.23
62725;BME280;49026;52.600;4.694;2023-02-28T11:13:56;103287.41;;;4.79;82.28
62725;BME280;49026;52.600;4.694;2023-02-28T11:16:34;103292.09;;;4.57;81.09
62725;BME280;49026;52.600;4.694;2023-02-28T11:19:00;103285.41;;;4.32;79.05
62725;BME280;49026;52.600;4.694;2023-02-28T11:21:26;103289.34;;;4.16;79.59
62725;BME280;49026;52.600;4.694;2023-02-28T11:24:01;103287.50;;;4.12;81.28
62725;BME280;49026;52.600;4.694;2023-02-28T11:26:46;103293.75;;;4.19;81.47
62725;BME280;49026;52.600;4.694;2023-02-28T11:34:39;103281.72;;;4.24;80.18
62725;BME280;49026;52.600;4.694;2023-02-28T11:37:11;103288.53;;;4.19;79.46
62725;BME280;49026;52.600;4.694;2023-02-28T11:39:37;103290.06;;;4.11;79.97
62725;BME280;49026;52.600;4.694;2023-02-28T11:42:11;103288.22;;;4.06;80.36
62725;BME280;49026;52.600;4.694;2023-02-28T11:47:50;103289.03;;;4.04;81.68
62725;BME280;49026;52.600;4.694;2023-02-28T11:53:04;103277.81;;;4.40;83.69
62725;BME280;49026;52.600;4.694;2023-02-28T11:55:49;103268.78;;;4.62;82.58
62725;BME280;49026;52.600;4.694;2023-02-28T11:58:23;103271.44;;;5.03;83.00
62725;BME280;49026;52.600;4.694;2023-02-28T12:03:58;103269.16;;;6.05;78.03
62725;BME280;49026;52.600;4.694;2023-02-28T12:11:56;103266.69;;;6.16;72.55
62725;BME280;49026;52.600;4.694;2023-02-28T12:14:41;103260.19;;;6.43;73.56
62725;BME280;49026;52.600;4.694;2023-02-28T12:28:42;103250.88;;;9.52;68.44
62725;BME280;49026;52.600;4.694;2023-02-28T12:31:17;103242.19;;;9.83;68.49
62725;BME280;49026;52.600;4.694;2023-02-28T12:33:52;103240.47;;;9.90;61.53
62725;BME280;49026;52.600;4.694;2023-02-28T12:36:20;103242.22;;;10.10;67.43
62725;BME280;49026;52.600;4.694;2023-02-28T12:39:01;103241.31;;;10.74;70.59
62725;BME280;49026;52.600;4.694;2023-02-28T12:41:51;103229.00;;;10.82;65.91
62725;BME280;49026;52.600;4.694;2023-02-28T12:44:26;103225.56;;;10.65;66.04
62725;BME280;49026;52.600;4.694;2023-02-28T12:46:58;103224.66;;;10.80;70.56
62725;BME280;49026;52.600;4.694;2023-02-28T12:49:51;103228.00;;;11.16;66.20
62725;BME280;49026;52.600;4.694;2023-02-28T12:52:28;103220.81;;;11.55;68.89
62725;BME280;49026;52.600;4.694;2023-02-28T12:55:01;103223.44;;;11.55;63.38
62725;BME280;49026;52.600;4.694;2023-02-28T12:57:36;103222.63;;;11.45;66.00
62725;BME280;49026;52.600;4.694;2023-02-28T13:00:13;103219.88;;;11.63;64.22
62725;BME280;49026;52.600;4.694;2023-02-28T13:02:50;103218.94;;;11.67;68.53
62725;BME280;49026;52.600;4.694;2023-02-28T13:10:44;103214.09;;;12.30;64.35
62725;BME280;49026;52.600;4.694;2023-02-28T13:13:18;103213.19;;;12.31;65.14
62725;BME280;49026;52.600;4.694;2023-02-28T13:18:38;103213.94;;;12.47;66.36
62725;BME280;49026;52.600;4.694;2023-02-28T13:21:09;103202.47;;;12.49;65.63
62725;BME280;49026;52.600;4.694;2023-02-28T13:26:14;103204.50;;;12.19;58.81
62725;BME280;49026;52.600;4.694;2023-02-28T13:31:15;103212.75;;;11.76;66.00
62725;BME280;49026;52.600;4.694;2023-02-28T13:36:28;103206.41;;;12.08;61.11
62725;BME280;49026;52.600;4.694;2023-02-28T13:38:57;103201.91;;;12.18;61.89
62725;BME280;49026;52.600;4.694;2023-02-28T13:46:30;103204.06;;;11.65;63.02
62725;BME280;49026;52.600;4.694;2023-02-28T13:49:23;103196.06;;;11.74;61.63
62725;BME280;49026;52.600;4.694;2023-02-28T13:57:42;103194.78;;;12.26;62.28
62725;BME280;49026;52.600;4.694;2023-02-28T14:03:04;103191.13;;;12.39;55.06
62725;BME280;49026;52.600;4.694;2023-02-28T14:05:33;103193.94;;;12.22;57.88
62725;BME280;49026;52.600;4.694;2023-02-28T14:08:04;103186.16;;;12.12;56.21
62725;BME280;49026;52.600;4.694;2023-02-28T14:10:37;103179.34;;;11.84;57.51
62725;BME280;49026;52.600;4.694;2023-02-28T14:16:00;103185.13;;;12.30;58.58
62725;BME280;49026;52.600;4.694;2023-02-28T14:18:31;103181.66;;;12.23;51.28
62725;BME280;49026;52.600;4.694;2023-02-28T14:21:04;103176.25;;;12.34;56.69
62725;BME280;49026;52.600;4.694;2023-02-28T14:31:48;103181.69;;;12.21;55.93
62725;BME280;49026;52.600;4.694;2023-02-28T14:34:43;103177.84;;;12.53;57.32
62725;BME280;49026;52.600;4.694;2023-02-28T14:37:16;103181.84;;;12.85;52.15
62725;BME280;49026;52.600;4.694;2023-02-28T14:39:47;103174.06;;;12.73;43.89
62725;BME280;49026;52.600;4.694;2023-02-28T14:42:37;103169.94;;;12.52;44.34
62725;BME280;49026;52.600;4.694;2023-02-28T14:45:17;103172.41;;;12.64;52.08
62725;BME280;49026;52.600;4.694;2023-02-28T14:47:43;103165.41;;;12.65;51.52
62725;BME280;49026;52.600;4.694;2023-02-28T14:50:18;103165.63;;;12.43;44.82
62725;BME280;49026;52.600;4.694;2023-02-28T14:52:48;103176.94;;;12.53;50.24
62725;BME280;49026;52.600;4.694;2023-02-28T14:55:23;103166.50;;;12.45;44.23
62725;BME280;49026;52.600;4.694;2023-02-28T14:57:54;103170.16;;;12.30;49.81
62725;BME280;49026;52.600;4.694;2023-02-28T15:00:31;103170.84;;;12.46;52.37
62725;BME280;49026;52.600;4.694;2023-02-28T15:02:58;103165.88;;;12.20;51.14
62725;BME280;49026;52.600;4.694;2023-02-28T15:05:34;103176.28;;;12.31;53.10
62725;BME280;49026;52.600;4.694;2023-02-28T15:10:33;103171.16;;;12.17;50.73
62725;BME280;49026;52.600;4.694;2023-02-28T15:13:05;103172.47;;;11.60;50.96